Time;durP1;ratioP1;P1;durP2;ratioP2;P2;SDS_P1;SDS_P2;PMS_P1;PMS_P2;Temp;Humidity;BMP_temperature;BMP_pressure;BME280_temperature;BME280_humidity;BME280_pressure;Samples;Min_cycle;Max_cycle;Signal;HPM_P1;HPM_P2
2021/07/06 00:00:14;;;;;;;22.35;3.72;;;17.90;99.90;;;;;;5013265;28;20418;-89
2021/07/06 00:02:41;;;;;;;14.80;2.83;;;17.90;99.90;;;;;;5031008;28;20116;-89
2021/07/06 00:05:08;;;;;;;20.10;3.55;;;17.90;99.90;;;;;;5026383;28;20112;-90
2021/07/06 00:07:34;;;;;;;18.75;3.17;;;17.90;99.90;;;;;;5030632;28;20159;-89
2021/07/06 00:10:00;;;;;;;17.33;3.40;;;17.90;99.90;;;;;;5029997;28;20091;-89
2021/07/06 00:12:26;;;;;;;25.75;3.30;;;17.90;99.90;;;;;;5030101;28;20163;-89
2021/07/06 00:14:53;;;;;;;19.77;3.65;;;17.90;99.90;;;;;;5029980;28;20021;-89
2021/07/06 00:17:19;;;;;;;20.95;3.35;;;17.90;99.90;;;;;;5029837;28;20100;-88
2021/07/06 00:19:46;;;;;;;21.90;3.08;;;17.90;99.90;;;;;;5030183;28;20488;-89
2021/07/06 00:22:12;;;;;;;18.55;3.03;;;17.90;99.90;;;;;;5030347;28;20025;-89
2021/07/06 00:24:38;;;;;;;23.80;4.15;;;17.90;99.90;;;;;;5029734;28;20512;-89
2021/07/06 00:27:04;;;;;;;27.80;4.00;;;17.80;99.90;;;;;;5029797;28;20020;-88
2021/07/06 00:29:30;;;;;;;22.17;3.58;;;17.90;99.90;;;;;;5026348;28;20030;-88
2021/07/06 00:31:56;;;;;;;23.20;4.55;;;17.90;99.90;;;;;;5029804;28;20101;-89
2021/07/06 00:34:21;;;;;;;24.63;4.60;;;17.90;99.90;;;;;;5029640;28;20039;-89
2021/07/06 00:36:47;;;;;;;22.83;3.45;;;17.90;99.90;;;;;;5029394;28;20243;-89
2021/07/06 00:39:15;;;;;;;30.88;4.88;;;17.90;99.90;;;;;;5030050;28;20034;-89
2021/07/06 00:41:41;;;;;;;35.95;5.15;;;17.90;99.90;;;;;;5029770;28;20397;-88
2021/07/06 00:44:18;;;;;;;19.50;4.10;;;17.90;99.90;;;;;;5020724;28;20030;-88
2021/07/06 00:46:45;;;;;;;24.80;3.80;;;17.90;99.90;;;;;;5029386;28;20075;-89
2021/07/06 00:49:10;;;;;;;37.97;4.72;;;17.80;99.90;;;;;;5029739;28;20021;-89
2021/07/06 00:51:37;;;;;;;29.88;4.65;;;17.90;99.90;;;;;;5029210;28;20021;-89
2021/07/06 00:54:03;;;;;;;36.20;4.60;;;17.80;99.90;;;;;;5030058;28;20017;-91
2021/07/06 00:56:30;;;;;;;28.35;4.22;;;17.70;99.90;;;;;;5016310;28;20461;-92
2021/07/06 00:58:56;;;;;;;34.10;4.50;;;17.60;99.90;;;;;;5011884;28;20054;-87
2021/07/06 01:01:22;;;;;;;31.38;4.47;;;17.50;99.90;;;;;;5004484;28;20364;-89
2021/07/06 01:03:48;;;;;;;24.67;4.30;;;17.30;99.90;;;;;;5010242;28;20029;-89
2021/07/06 01:06:13;;;;;;;27.13;3.90;;;17.10;99.90;;;;;;5010445;28;20071;-92
2021/07/06 01:08:39;;;;;;;29.55;4.70;;;17.00;99.90;;;;;;5010149;28;20026;-93
2021/07/06 01:11:06;;;;;;;23.25;4.03;;;17.00;99.90;;;;;;4999613;28;20023;-93
2021/07/06 01:13:35;;;;;;;21.75;2.97;;;17.00;99.90;;;;;;5019304;28;20183;-93
2021/07/06 01:16:01;;;;;;;19.75;3.47;;;17.00;99.90;;;;;;4998153;28;20038;-92
2021/07/06 01:18:27;;;;;;;32.13;3.95;;;16.90;99.90;;;;;;5005062;28;20390;-92
2021/07/06 01:20:55;;;;;;;18.20;3.45;;;17.00;99.90;;;;;;5009465;28;20034;-90
2021/07/06 01:23:26;;;;;;;20.83;4.00;;;17.00;99.90;;;;;;5009734;28;20023;-91
2021/07/06 01:25:55;;;;;;;16.10;3.47;;;16.90;99.90;;;;;;5009714;28;20117;-91
2021/07/06 01:28:21;;;;;;;22.92;4.10;;;16.90;99.90;;;;;;5008731;28;20098;-91
2021/07/06 01:30:47;;;;;;;21.20;3.58;;;16.90;99.90;;;;;;5009743;28;20463;-93
2021/07/06 01:33:20;;;;;;;21.80;3.40;;;16.90;99.90;;;;;;5010176;28;20109;-93
2021/07/06 01:35:46;;;;;;;17.25;3.15;;;16.90;99.90;;;;;;5005515;28;20027;-92
2021/07/06 01:38:11;;;;;;;16.63;3.15;;;16.90;99.90;;;;;;5008303;28;20438;-91
2021/07/06 01:40:37;;;;;;;21.80;3.30;;;16.90;99.90;;;;;;5007558;28;20045;-91
2021/07/06 01:43:03;;;;;;;20.48;3.33;;;17.00;99.90;;;;;;5004049;28;20422;-92
2021/07/06 01:45:30;;;;;;;23.63;3.33;;;17.00;99.90;;;;;;4998820;28;20027;-93
2021/07/06 01:47:59;;;;;;;24.52;3.15;;;17.00;99.90;;;;;;4999627;28;20033;-91
2021/07/06 01:50:37;;;;;;;23.05;3.80;;;17.00;99.90;;;;;;4998130;28;20498;-92
2021/07/06 01:53:08;;;;;;;20.67;3.88;;;17.00;99.90;;;;;;5025140;28;20295;-91
2021/07/06 01:55:43;;;;;;;22.33;3.40;;;17.00;99.90;;;;;;5008742;28;20026;-91
2021/07/06 01:58:11;;;;;;;25.27;3.42;;;17.00;99.90;;;;;;5012613;28;20056;-91
2021/07/06 02:00:47;;;;;;;15.70;2.92;;;17.00;99.90;;;;;;5016091;28;20041;-91
2021/07/06 02:03:13;;;;;;;26.75;4.18;;;16.90;99.90;;;;;;5008866;28;20089;-90
2021/07/06 02:05:41;;;;;;;25.05;4.82;;;16.90;99.90;;;;;;5016468;28;20105;-92
2021/07/06 02:08:09;;;;;;;15.43;3.00;;;16.90;99.90;;;;;;5013198;28;20028;-89
2021/07/06 02:10:36;;;;;;;23.55;3.70;;;16.90;99.90;;;;;;5017734;28;20394;-89
2021/07/06 02:13:03;;;;;;;15.52;3.25;;;16.90;99.90;;;;;;5012627;28;20022;-89
2021/07/06 02:15:29;;;;;;;14.98;2.92;;;16.90;99.90;;;;;;5015038;28;20087;-89
2021/07/06 02:17:55;;;;;;;19.65;2.78;;;16.90;99.90;;;;;;5001751;28;20087;-89
2021/07/06 02:20:22;;;;;;;21.40;2.88;;;16.80;99.90;;;;;;5023465;28;20045;-89
2021/07/06 02:22:48;;;;;;;13.07;2.63;;;16.80;99.90;;;;;;5032138;28;20049;-89
2021/07/06 02:25:17;;;;;;;18.10;2.72;;;16.80;99.90;;;;;;5014469;28;20064;-88
2021/07/06 02:27:49;;;;;;;24.70;3.65;;;16.80;99.90;;;;;;5031692;28;20083;-89
2021/07/06 02:30:21;;;;;;;18.77;2.95;;;16.80;99.90;;;;;;5032218;28;20030;-88
2021/07/06 02:32:48;;;;;;;19.42;2.65;;;16.70;99.90;;;;;;5031995;28;20477;-88
2021/07/06 02:35:14;;;;;;;20.02;3.05;;;16.70;99.90;;;;;;5031809;28;20032;-88
2021/07/06 02:37:40;;;;;;;21.08;3.58;;;16.80;99.90;;;;;;5031692;28;20021;-89
2021/07/06 02:40:07;;;;;;;19.25;3.33;;;16.80;99.90;;;;;;5032151;28;20064;-89
2021/07/06 02:42:33;;;;;;;26.73;3.28;;;16.80;99.90;;;;;;5031790;28;20101;-88
2021/07/06 02:44:59;;;;;;;17.08;3.25;;;16.70;99.90;;;;;;5031531;28;20513;-89
2021/07/06 02:47:25;;;;;;;24.40;3.58;;;16.70;99.90;;;;;;5031806;28;20032;-88
2021/07/06 02:49:50;;;;;;;26.52;4.20;;;16.70;99.90;;;;;;5031355;28;20524;-89
2021/07/06 02:52:16;;;;;;;22.52;3.25;;;16.70;99.90;;;;;;5019563;28;20116;-88
2021/07/06 02:54:42;;;;;;;20.25;3.28;;;16.70;99.90;;;;;;5031379;28;20033;-88
2021/07/06 02:57:09;;;;;;;23.02;2.90;;;16.70;99.90;;;;;;5031724;28;20025;-89
2021/07/06 02:59:35;;;;;;;19.88;3.33;;;16.70;99.90;;;;;;5030787;28;20131;-88
2021/07/06 03:02:01;;;;;;;26.95;4.35;;;16.70;99.90;;;;;;5031706;28;20029;-89
2021/07/06 03:04:27;;;;;;;25.13;3.30;;;16.70;99.90;;;;;;5031990;28;20079;-88
2021/07/06 03:06:52;;;;;;;21.77;3.05;;;16.70;99.90;;;;;;5031288;28;20514;-89
2021/07/06 03:09:18;;;;;;;25.65;3.75;;;16.70;99.90;;;;;;5031599;28;20032;-88
2021/07/06 03:11:45;;;;;;;21.63;2.90;;;16.70;99.90;;;;;;5031039;28;20075;-87
2021/07/06 03:14:11;;;;;;;19.95;3.17;;;16.70;99.90;;;;;;5018045;28;20504;-88
2021/07/06 03:16:36;;;;;;;23.17;3.28;;;16.60;99.90;;;;;;5030969;28;20100;-90
2021/07/06 03:19:02;;;;;;;28.23;3.53;;;16.60;99.90;;;;;;5030932;28;20030;-88
2021/07/06 03:21:28;;;;;;;24.65;4.75;;;16.60;99.90;;;;;;5030934;28;20375;-88
2021/07/06 03:23:55;;;;;;;22.15;3.50;;;16.60;99.90;;;;;;5030963;28;20064;-89
2021/07/06 03:26:20;;;;;;;15.30;2.70;;;16.60;99.90;;;;;;5030990;28;20045;-88
2021/07/06 03:28:46;;;;;;;26.05;3.72;;;16.60;99.90;;;;;;5021638;28;20387;-88
2021/07/06 03:31:12;;;;;;;25.70;3.10;;;16.60;99.90;;;;;;5029383;28;20484;-88
2021/07/06 03:33:37;;;;;;;24.30;3.63;;;16.60;99.90;;;;;;5030825;28;20473;-88
2021/07/06 03:36:03;;;;;;;16.85;2.53;;;16.70;99.90;;;;;;5025224;28;20079;-88
2021/07/06 03:38:29;;;;;;;28.35;3.20;;;16.60;99.90;;;;;;5030863;28;20374;-88
2021/07/06 03:40:55;;;;;;;24.42;3.50;;;16.60;99.90;;;;;;5030753;28;20034;-88
2021/07/06 03:43:20;;;;;;;22.50;3.20;;;16.60;99.90;;;;;;5031065;28;20021;-89
2021/07/06 03:45:46;;;;;;;13.73;2.67;;;16.60;99.90;;;;;;5021850;28;20520;-88
2021/07/06 03:48:12;;;;;;;21.27;3.20;;;16.60;99.90;;;;;;5030689;28;20028;-88
2021/07/06 03:50:37;;;;;;;19.08;2.95;;;16.70;99.90;;;;;;5030827;28;20427;-88
2021/07/06 03:53:04;;;;;;;22.00;3.65;;;16.60;99.90;;;;;;5030517;28;20025;-88
2021/07/06 03:55:30;;;;;;;23.58;3.80;;;16.60;99.90;;;;;;5030742;28;20377;-89
2021/07/06 03:57:56;;;;;;;24.10;4.50;;;16.70;99.90;;;;;;5030811;28;20132;-88
2021/07/06 04:00:25;;;;;;;21.02;3.35;;;16.70;99.90;;;;;;5030598;28;20038;-88
2021/07/06 04:02:51;;;;;;;24.27;3.33;;;16.70;99.90;;;;;;5030923;28;20037;-88
2021/07/06 04:05:18;;;;;;;25.27;3.97;;;16.70;99.90;;;;;;5030205;28;20021;-89
2021/07/06 04:07:44;;;;;;;22.58;3.78;;;16.70;99.90;;;;;;5030575;28;20561;-88
2021/07/06 04:10:12;;;;;;;20.88;3.38;;;16.70;99.90;;;;;;5030867;28;20091;-89
2021/07/06 04:12:38;;;;;;;21.55;3.92;;;16.70;99.90;;;;;;5030825;28;20096;-88
2021/07/06 04:15:07;;;;;;;26.58;4.18;;;16.70;99.90;;;;;;5030612;28;20087;-88
2021/07/06 04:17:32;;;;;;;34.70;5.13;;;16.60;99.90;;;;;;5027513;28;20101;-88
2021/07/06 04:19:58;;;;;;;27.02;3.47;;;16.70;99.90;;;;;;5019949;28;20124;-88
2021/07/06 04:22:24;;;;;;;18.80;2.97;;;16.70;99.90;;;;;;5029041;28;20300;-88
2021/07/06 04:24:49;;;;;;;19.08;3.78;;;16.70;99.90;;;;;;5018129;28;20543;-87
2021/07/06 04:27:15;;;;;;;19.50;3.53;;;16.60;99.90;;;;;;5030119;28;20032;-88
2021/07/06 04:29:41;;;;;;;28.35;3.65;;;16.60;99.90;;;;;;5029921;28;20017;-88
2021/07/06 04:32:07;;;;;;;18.65;3.05;;;16.70;99.90;;;;;;5029979;28;20517;-88
2021/07/06 04:34:33;;;;;;;21.95;3.35;;;16.70;99.90;;;;;;5029947;28;20021;-88
2021/07/06 04:36:58;;;;;;;23.05;4.18;;;16.80;99.90;;;;;;5018085;28;20049;-88
2021/07/06 04:39:24;;;;;;;34.38;4.38;;;16.80;99.90;;;;;;5029635;28;20464;-89
2021/07/06 04:41:50;;;;;;;21.75;3.85;;;16.80;99.90;;;;;;5029832;28;20025;-88
2021/07/06 04:44:15;;;;;;;25.00;4.20;;;16.80;99.90;;;;;;5030025;28;20070;-88
2021/07/06 04:46:42;;;;;;;29.38;3.90;;;16.70;99.90;;;;;;5030058;28;20017;-88
2021/07/06 04:49:08;;;;;;;24.90;3.72;;;16.80;99.90;;;;;;5030408;28;20021;-88
2021/07/06 04:51:35;;;;;;;22.27;4.28;;;16.70;99.90;;;;;;5030287;28;20014;-88
2021/07/06 04:54:01;;;;;;;26.67;4.20;;;16.70;99.90;;;;;;5018835;28;20025;-88
2021/07/06 04:56:28;;;;;;;29.90;4.25;;;16.70;99.90;;;;;;5030040;28;20029;-87
2021/07/06 04:58:54;;;;;;;27.08;4.25;;;16.70;99.90;;;;;;5029320;28;20140;-87
2021/07/06 05:01:22;;;;;;;23.48;3.47;;;16.80;99.90;;;;;;5030055;28;20029;-88
2021/07/06 05:03:49;;;;;;;22.48;3.90;;;16.80;99.90;;;;;;5029470;28;20032;-88
2021/07/06 05:06:19;;;;;;;24.90;4.38;;;16.80;99.90;;;;;;5029554;28;20022;-88
2021/07/06 05:08:46;;;;;;;27.70;3.78;;;16.90;99.90;;;;;;5029452;28;20013;-88
2021/07/06 05:11:12;;;;;;;20.67;4.03;;;17.00;99.90;;;;;;5029761;28;20559;-88
2021/07/06 05:13:38;;;;;;;24.15;4.13;;;17.00;99.90;;;;;;5029553;28;20490;-88
2021/07/06 05:16:04;;;;;;;28.23;4.30;;;17.10;99.90;;;;;;5029764;28;20052;-88
2021/07/06 05:18:30;;;;;;;26.25;3.95;;;17.20;99.90;;;;;;5018483;28;20113;-88
2021/07/06 05:20:56;;;;;;;29.30;3.53;;;17.20;99.90;;;;;;5027105;28;20104;-87
2021/07/06 05:23:22;;;;;;;24.98;3.85;;;17.30;99.90;;;;;;5032981;28;20047;-88
2021/07/06 05:25:48;;;;;;;23.80;4.18;;;17.20;99.90;;;;;;5033559;28;20022;-87
2021/07/06 05:28:14;;;;;;;26.67;4.28;;;17.20;99.90;;;;;;5033159;28;20025;-89
2021/07/06 05:30:40;;;;;;;26.10;3.90;;;17.20;99.90;;;;;;5033226;28;20014;-88
2021/07/06 05:33:05;;;;;;;27.92;4.07;;;17.20;99.90;;;;;;5032918;28;20046;-88
2021/07/06 05:35:31;;;;;;;23.23;4.57;;;17.20;99.90;;;;;;5032851;28;20022;-86
2021/07/06 05:37:57;;;;;;;25.60;4.45;;;17.20;99.90;;;;;;5029006;28;20044;-87
2021/07/06 05:40:22;;;;;;;28.80;5.57;;;17.10;99.90;;;;;;5033649;28;20045;-87
2021/07/06 05:42:48;;;;;;;34.25;4.18;;;17.10;99.90;;;;;;5033331;28;20104;-86
2021/07/06 05:45:14;;;;;;;26.40;3.90;;;17.20;99.90;;;;;;5033119;28;20493;-87
2021/07/06 05:47:41;;;;;;;26.98;4.22;;;17.30;99.90;;;;;;5030180;28;20018;-86
2021/07/06 05:50:09;;;;;;;25.63;4.13;;;17.40;99.90;;;;;;5031775;28;20028;-86
2021/07/06 05:52:35;;;;;;;25.35;4.57;;;17.40;99.90;;;;;;5032372;28;20009;-86
2021/07/06 05:55:01;;;;;;;25.45;4.15;;;17.40;99.90;;;;;;5030485;28;20563;-86
2021/07/06 05:57:30;;;;;;;18.20;3.22;;;17.60;99.90;;;;;;5014111;28;20406;-87
2021/07/06 06:00:00;;;;;;;24.30;3.72;;;17.60;99.90;;;;;;5028730;28;20029;-87
2021/07/06 06:02:26;;;;;;;26.90;3.85;;;17.70;99.90;;;;;;5031271;28;20125;-87
2021/07/06 06:04:52;;;;;;;22.80;3.85;;;17.90;99.90;;;;;;5012079;28;20025;-86
2021/07/06 06:07:18;;;;;;;23.23;3.35;;;17.80;99.90;;;;;;5031649;28;20009;-86
2021/07/06 06:09:43;;;;;;;27.55;4.00;;;17.80;99.90;;;;;;5012670;28;20037;-87
2021/07/06 06:12:10;;;;;;;23.00;4.28;;;17.80;99.90;;;;;;5024718;28;20100;-87
2021/07/06 06:14:36;;;;;;;23.75;4.82;;;17.80;99.90;;;;;;5021080;28;20068;-86
2021/07/06 06:17:02;;;;;;;25.77;4.75;;;17.90;99.90;;;;;;5020956;28;20028;-86
2021/07/06 06:19:28;;;;;;;25.00;4.15;;;17.80;99.90;;;;;;5018859;28;20025;-87
2021/07/06 06:21:53;;;;;;;19.13;3.50;;;17.80;99.90;;;;;;5033156;28;20036;-87
2021/07/06 06:24:19;;;;;;;22.08;3.35;;;17.90;99.90;;;;;;5032736;28;20043;-87
2021/07/06 06:26:45;;;;;;;25.95;3.70;;;17.90;99.90;;;;;;5032858;28;20020;-87
2021/07/06 06:29:10;;;;;;;27.90;4.07;;;17.90;99.90;;;;;;5032681;28;20618;-87
2021/07/06 06:31:36;;;;;;;27.35;4.28;;;17.90;99.90;;;;;;5032656;28;20079;-87
2021/07/06 06:34:02;;;;;;;23.90;3.60;;;17.90;99.90;;;;;;5032871;28;20026;-88
2021/07/06 06:36:27;;;;;;;21.58;3.03;;;17.90;99.90;;;;;;5019967;28;20025;-87
2021/07/06 06:38:53;;;;;;;25.33;4.22;;;17.80;99.90;;;;;;5013614;28;20105;-88
2021/07/06 06:41:19;;;;;;;26.80;3.70;;;17.80;99.90;;;;;;5023985;28;20029;-87
2021/07/06 06:43:45;;;;;;;25.38;4.13;;;17.90;99.90;;;;;;5024936;28;20135;-87
2021/07/06 06:46:10;;;;;;;21.17;3.92;;;17.90;99.90;;;;;;5022302;28;20083;-88
2021/07/06 06:48:36;;;;;;;20.42;3.63;;;17.80;99.90;;;;;;5026683;28;20386;-87
2021/07/06 06:51:02;;;;;;;24.70;3.50;;;17.90;99.90;;;;;;5022051;28;20061;-87
2021/07/06 06:53:27;;;;;;;20.40;3.92;;;18.00;99.90;;;;;;5027000;28;20269;-88
2021/07/06 06:55:53;;;;;;;22.23;4.32;;;18.00;99.90;;;;;;5025332;28;20108;-87
2021/07/06 06:58:19;;;;;;;19.10;3.88;;;18.00;99.90;;;;;;5024863;28;20068;-88
2021/07/06 07:00:44;;;;;;;26.40;4.53;;;17.90;99.90;;;;;;5027579;28;20056;-88
2021/07/06 07:03:10;;;;;;;25.73;3.55;;;18.00;99.90;;;;;;5017730;28;20056;-87
2021/07/06 07:05:36;;;;;;;22.50;3.55;;;18.10;99.90;;;;;;5038640;28;20023;-88
2021/07/06 07:08:01;;;;;;;23.73;3.75;;;18.10;99.90;;;;;;5041147;28;20058;-87
2021/07/06 07:10:27;;;;;;;18.58;3.17;;;18.00;99.90;;;;;;5045908;28;20021;-87
2021/07/06 07:12:54;;;;;;;24.98;3.78;;;18.00;99.90;;;;;;5037668;28;20064;-87
2021/07/06 07:15:20;;;;;;;25.45;4.53;;;18.00;99.90;;;;;;5035862;28;20017;-87
2021/07/06 07:17:46;;;;;;;25.35;3.28;;;18.20;99.90;;;;;;5028484;28;20192;-87
2021/07/06 07:20:12;;;;;;;26.63;3.70;;;18.40;99.90;;;;;;5040448;28;20221;-88
2021/07/06 07:22:39;;;;;;;19.98;4.53;;;18.50;99.90;;;;;;5048237;28;20012;-88
2021/07/06 07:25:05;;;;;;;26.92;4.32;;;18.40;99.90;;;;;;5029004;28;20044;-87
2021/07/06 07:27:31;;;;;;;19.83;3.60;;;18.30;99.90;;;;;;5052317;28;20100;-87
2021/07/06 07:29:57;;;;;;;22.55;3.85;;;18.40;99.90;;;;;;5052999;28;20029;-87
2021/07/06 07:32:24;;;;;;;20.35;4.45;;;18.30;99.90;;;;;;5027867;28;20481;-87
2021/07/06 07:34:49;;;;;;;30.05;4.90;;;18.40;99.90;;;;;;5031650;28;20502;-87
2021/07/06 07:37:16;;;;;;;19.13;3.72;;;18.40;99.90;;;;;;5030581;28;20022;-87
2021/07/06 07:39:44;;;;;;;16.92;3.35;;;18.40;99.90;;;;;;5027821;28;20544;-87
2021/07/06 07:42:10;;;;;;;22.88;3.80;;;18.40;99.90;;;;;;5017070;28;20030;-87
2021/07/06 07:44:36;;;;;;;21.98;3.83;;;18.40;99.90;;;;;;5027263;28;20272;-88
2021/07/06 07:47:03;;;;;;;21.63;3.20;;;18.40;99.90;;;;;;5030969;28;20033;-86
2021/07/06 07:49:29;;;;;;;19.35;4.03;;;18.50;99.90;;;;;;5024451;28;20025;-87
2021/07/06 07:51:55;;;;;;;18.95;2.95;;;18.60;99.90;;;;;;5031597;28;20031;-88
2021/07/06 07:54:21;;;;;;;23.40;3.97;;;18.60;99.90;;;;;;5030794;28;20060;-88
2021/07/06 07:56:47;;;;;;;20.67;3.50;;;18.70;99.90;;;;;;5026476;28;20125;-88
2021/07/06 07:59:12;;;;;;;23.60;3.72;;;18.80;99.90;;;;;;5010525;28;20049;-87
2021/07/06 08:01:39;;;;;;;25.67;4.07;;;18.90;99.90;;;;;;5030738;28;20047;-87
2021/07/06 08:04:05;;;;;;;18.58;3.10;;;19.00;99.90;;;;;;5031060;28;20037;-87
2021/07/06 08:06:31;;;;;;;23.73;3.55;;;19.00;99.90;;;;;;5030515;28;20036;-87
2021/07/06 08:08:57;;;;;;;18.27;3.50;;;18.80;99.90;;;;;;5016242;28;20390;-88
2021/07/06 08:11:23;;;;;;;20.25;3.55;;;18.90;99.90;;;;;;5030713;28;20104;-88
2021/07/06 08:13:49;;;;;;;22.77;3.55;;;18.90;99.90;;;;;;5016841;28;20021;-87
2021/07/06 08:16:14;;;;;;;24.23;3.75;;;18.70;99.90;;;;;;5030718;28;20022;-88
2021/07/06 08:18:40;;;;;;;17.63;2.75;;;18.40;99.90;;;;;;5017910;28;20439;-88
2021/07/06 08:21:06;;;;;;;22.98;3.72;;;18.40;99.90;;;;;;5024371;28;20030;-88
2021/07/06 08:23:33;;;;;;;27.35;4.30;;;18.50;99.90;;;;;;5021600;28;20025;-88
2021/07/06 08:25:58;;;;;;;18.40;4.32;;;18.70;99.90;;;;;;5026067;28;20033;-87
2021/07/06 08:28:26;;;;;;;24.70;4.40;;;18.70;99.90;;;;;;5030680;28;20038;-88
2021/07/06 08:30:53;;;;;;;25.58;4.03;;;18.80;99.90;;;;;;5030516;28;20433;-88
2021/07/06 08:33:19;;;;;;;19.77;2.83;;;18.90;99.90;;;;;;5023720;28;20041;-87
2021/07/06 08:35:46;;;;;;;20.55;3.97;;;18.90;99.90;;;;;;5023611;28;20112;-88
2021/07/06 08:38:14;;;;;;;15.90;3.42;;;19.10;99.90;;;;;;5030571;28;20036;-87
2021/07/06 08:40:41;;;;;;;18.33;3.38;;;19.20;99.90;;;;;;5030443;28;20512;-88
2021/07/06 08:43:07;;;;;;;26.60;3.63;;;19.10;99.90;;;;;;5030162;28;20010;-88
2021/07/06 08:45:34;;;;;;;27.48;3.42;;;19.00;99.90;;;;;;5030329;28;20028;-87
2021/07/06 08:48:00;;;;;;;22.85;3.72;;;19.00;99.90;;;;;;5030284;28;20397;-88
2021/07/06 08:50:26;;;;;;;21.08;3.28;;;19.00;99.90;;;;;;5029716;28;20145;-88
2021/07/06 08:52:52;;;;;;;28.90;4.03;;;19.00;99.90;;;;;;5022639;28;20416;-87
2021/07/06 08:55:20;;;;;;;21.13;3.70;;;18.90;99.90;;;;;;5015139;28;20024;-88
2021/07/06 08:57:46;;;;;;;20.58;3.95;;;19.00;99.90;;;;;;5002082;28;20514;-87
2021/07/06 09:00:15;;;;;;;26.48;3.70;;;19.00;99.90;;;;;;5014410;28;20387;-89
2021/07/06 09:02:53;;;;;;;18.00;3.78;;;19.10;99.90;;;;;;5033748;28;20096;-88
2021/07/06 09:05:22;;;;;;;26.92;3.33;;;19.20;99.90;;;;;;5033310;28;20032;-87
2021/07/06 09:07:48;;;;;;;24.45;3.20;;;19.10;99.90;;;;;;5033583;28;20100;-88
2021/07/06 09:10:18;;;;;;;21.80;3.33;;;19.10;99.90;;;;;;5029243;28;20524;-89
2021/07/06 09:12:45;;;;;;;18.80;3.17;;;19.20;99.90;;;;;;5033830;28;20559;-88
2021/07/06 09:15:24;;;;;;;17.70;3.45;;;19.00;99.90;;;;;;5033414;28;20505;-88
2021/07/06 09:18:03;;;;;;;18.38;3.63;;;19.10;99.90;;;;;;5027486;28;20098;-93
2021/07/06 09:20:32;;;;;;;22.63;3.58;;;19.40;99.90;;;;;;5009126;28;20440;-89
2021/07/06 09:23:21;;;;;;;20.05;3.30;;;19.30;99.90;;;;;;5033413;28;20028;-88
2021/07/06 09:25:47;;;;;;;18.75;3.75;;;19.40;99.90;;;;;;5033131;28;20113;-88
2021/07/06 09:28:23;;;;;;;25.08;4.25;;;19.50;99.90;;;;;;5033168;28;20033;-89
2021/07/06 09:30:49;;;;;;;18.42;2.85;;;19.40;99.90;;;;;;5032993;28;20381;-88
2021/07/06 09:33:30;;;;;;;19.92;3.05;;;19.40;99.90;;;;;;5033114;28;20026;-88
2021/07/06 09:35:56;;;;;;;23.23;3.15;;;19.70;99.90;;;;;;5032958;28;20025;-87
2021/07/06 09:38:21;;;;;;;21.70;4.20;;;19.70;99.90;;;;;;5033143;28;20025;-87
2021/07/06 09:40:51;;;;;;;21.30;3.35;;;19.50;99.90;;;;;;5033359;28;20029;-87
2021/07/06 09:43:23;;;;;;;21.88;3.25;;;19.20;99.90;;;;;;5033259;28;20053;-87
2021/07/06 09:45:55;;;;;;;16.48;3.03;;;19.00;99.90;;;;;;5033421;28;20359;-87
2021/07/06 09:48:22;;;;;;;16.65;3.00;;;19.10;99.90;;;;;;5029369;28;20036;-87
2021/07/06 09:50:48;;;;;;;20.48;2.88;;;19.40;99.90;;;;;;5013079;28;20522;-87
2021/07/06 09:53:28;;;;;;;14.82;3.15;;;19.40;99.90;;;;;;5030418;28;20032;-87
2021/07/06 09:55:55;;;;;;;13.75;2.72;;;19.40;99.90;;;;;;5033216;28;20059;-87
2021/07/06 09:58:21;;;;;;;20.73;3.17;;;19.50;99.90;;;;;;5032901;28;20038;-87
2021/07/06 10:00:48;;;;;;;17.40;2.88;;;19.70;99.90;;;;;;5032707;28;20113;-87
2021/07/06 10:03:15;;;;;;;22.60;4.20;;;20.00;99.90;;;;;;5031677;28;20071;-87
2021/07/06 10:05:43;;;;;;;23.55;3.33;;;20.30;99.90;;;;;;5019413;28;20163;-87
2021/07/06 10:08:10;;;;;;;25.30;3.72;;;19.90;99.90;;;;;;5025421;28;20033;-87
2021/07/06 10:10:36;;;;;;;19.83;2.83;;;19.80;99.90;;;;;;5033056;28;20017;-87
2021/07/06 10:13:02;;;;;;;18.27;2.90;;;19.90;99.90;;;;;;5032972;28;20028;-87
2021/07/06 10:15:28;;;;;;;15.10;2.97;;;20.20;99.90;;;;;;5028431;28;20084;-87
2021/07/06 10:17:54;;;;;;;14.48;2.88;;;20.20;99.90;;;;;;5016756;28;20026;-88
2021/07/06 10:20:25;;;;;;;14.98;2.58;;;20.40;99.90;;;;;;5024987;28;20041;-88
2021/07/06 10:22:52;;;;;;;20.05;3.58;;;20.20;99.90;;;;;;5032210;28;20018;-88
2021/07/06 10:25:23;;;;;;;18.17;3.35;;;20.30;99.90;;;;;;5032080;28;20033;-87
2021/07/06 10:27:52;;;;;;;20.98;3.13;;;20.10;99.90;;;;;;5032346;28;20100;-86
2021/07/06 10:30:20;;;;;;;20.27;3.75;;;20.00;99.90;;;;;;5014535;28;20032;-85
2021/07/06 10:32:53;;;;;;;21.13;3.20;;;20.00;99.90;;;;;;5030594;28;20010;-84
2021/07/06 10:35:38;;;;;;;16.50;2.88;;;20.20;99.90;;;;;;5020556;28;20282;-85
2021/07/06 10:38:29;;;;;;;13.07;3.08;;;20.20;99.90;;;;;;5015851;28;20029;-85
2021/07/06 10:41:07;;;;;;;19.75;3.53;;;20.20;99.90;;;;;;5019727;28;20438;-84
2021/07/06 10:43:40;;;;;;;16.52;2.90;;;20.30;99.90;;;;;;5024989;28;20021;-84
2021/07/06 10:46:21;;;;;;;21.05;2.97;;;20.20;99.90;;;;;;5032302;28;20121;-85
2021/07/06 10:48:56;;;;;;;17.58;3.22;;;20.20;99.90;;;;;;5031810;28;20026;-85
2021/07/06 10:51:37;;;;;;;17.08;2.78;;;20.30;99.90;;;;;;5017422;28;20545;-86
2021/07/06 10:54:07;;;;;;;13.57;2.65;;;20.20;99.90;;;;;;5010812;28;20382;-84
2021/07/06 10:56:39;;;;;;;17.13;2.65;;;20.30;99.90;;;;;;5012087;28;20029;-84
2021/07/06 10:59:16;;;;;;;11.55;2.55;;;20.30;99.90;;;;;;5031922;28;20091;-85
2021/07/06 11:01:45;;;;;;;19.80;2.80;;;20.50;99.90;;;;;;5031724;28;20026;-86
2021/07/06 11:04:13;;;;;;;12.40;2.92;;;20.60;99.90;;;;;;5010919;28;20044;-71
2021/07/06 11:06:47;;;;;;;14.30;3.60;;;20.40;99.90;;;;;;5027758;28;20490;-72
2021/07/06 11:09:36;;;;;;;14.68;2.45;;;20.30;99.90;;;;;;5036591;28;20482;-71
2021/07/06 11:12:24;;;;;;;17.92;3.28;;;20.40;99.90;;;;;;5020311;28;20025;-72
2021/07/06 11:14:54;;;;;;;15.63;2.55;;;20.60;99.90;;;;;;5030148;28;20113;-75
2021/07/06 11:17:40;;;;;;;23.08;2.60;;;20.40;99.90;;;;;;5008990;28;20014;-76
2021/07/06 11:20:07;;;;;;;17.50;3.72;;;20.30;99.90;;;;;;5022433;28;20029;-84
2021/07/06 11:22:41;;;;;;;20.52;2.70;;;20.10;99.90;;;;;;5030778;28;20022;-83
2021/07/06 11:25:21;;;;;;;19.80;3.13;;;20.20;99.90;;;;;;5029768;28;20040;-83
2021/07/06 11:27:59;;;;;;;16.08;3.15;;;20.50;99.90;;;;;;5027768;28;20072;-83
2021/07/06 11:30:33;;;;;;;17.38;2.63;;;20.60;99.90;;;;;;5023272;28;20108;-84
2021/07/06 11:33:37;;;;;;;22.50;3.70;;;20.70;99.90;;;;;;5029322;28;20055;-82
2021/07/06 11:36:07;;;;;;;19.58;3.25;;;20.30;99.90;;;;;;5014492;28;20050;-85
2021/07/06 11:38:33;;;;;;;17.00;3.35;;;20.00;99.90;;;;;;5031186;28;20029;-85
2021/07/06 11:41:01;;;;;;;15.52;2.97;;;20.20;99.90;;;;;;5028392;28;20064;-84
2021/07/06 11:43:29;;;;;;;17.60;2.90;;;20.40;99.90;;;;;;5017952;28;20084;-88
2021/07/06 11:46:04;;;;;;;14.13;2.97;;;20.30;99.90;;;;;;5020022;28;20367;-87
2021/07/06 11:48:35;;;;;;;12.57;3.05;;;20.60;99.90;;;;;;5019712;28;20018;-92
2021/07/06 11:51:04;;;;;;;15.38;2.92;;;20.50;99.90;;;;;;5011329;28;20030;-85
2021/07/06 11:53:32;;;;;;;12.88;2.80;;;20.40;99.90;;;;;;5010269;28;20022;-86
2021/07/06 11:55:59;;;;;;;21.15;2.70;;;20.50;99.90;;;;;;5010379;28;20017;-85
2021/07/06 11:58:27;;;;;;;14.32;2.92;;;20.80;99.90;;;;;;5010442;28;20050;-84
2021/07/06 12:00:55;;;;;;;14.18;2.45;;;20.90;99.90;;;;;;5024625;28;20470;-84
2021/07/06 12:03:22;;;;;;;12.85;2.83;;;20.80;99.90;;;;;;5018351;28;20268;-84
2021/07/06 12:05:57;;;;;;;17.52;4.15;;;20.80;99.90;;;;;;5030191;28;20029;-84
2021/07/06 12:08:28;;;;;;;14.18;3.05;;;20.80;99.90;;;;;;5023310;28;20050;-83
2021/07/06 12:11:04;;;;;;;16.15;3.08;;;20.80;99.90;;;;;;4992400;28;20073;-77
2021/07/06 12:13:41;;;;;;;14.88;2.83;;;20.90;99.90;;;;;;5009910;28;20030;-81
2021/07/06 12:16:15;;;;;;;19.27;3.13;;;21.20;99.90;;;;;;5009863;28;20076;-81
2021/07/06 12:18:57;;;;;;;14.38;3.20;;;21.50;99.90;;;;;;5010125;28;20033;-80
2021/07/06 12:21:38;;;;;;;19.35;2.78;;;21.70;99.90;;;;;;5009720;28;20052;-80
2021/07/06 12:24:09;;;;;;;15.23;2.40;;;21.80;99.90;;;;;;5010196;28;20060;-79
2021/07/06 12:26:40;;;;;;;15.50;2.83;;;21.80;99.90;;;;;;5010006;28;20100;-80
2021/07/06 12:29:06;;;;;;;12.60;2.47;;;21.40;99.90;;;;;;5013922;28;20048;-79
2021/07/06 12:31:33;;;;;;;12.80;2.22;;;21.30;99.90;;;;;;5028994;28;20517;-78
2021/07/06 12:34:11;;;;;;;15.70;2.95;;;21.20;99.90;;;;;;5029327;28;20026;-78
2021/07/06 12:36:40;;;;;;;21.05;3.38;;;21.30;99.90;;;;;;5029136;28;20087;-78
2021/07/06 12:39:22;;;;;;;18.13;3.05;;;21.30;99.90;;;;;;5022217;28;20092;-79